Time;durP1;ratioP1;P1;durP2;ratioP2;P2;SDS_P1;SDS_P2;PMS_P1;PMS_P2;Temp;Humidity;BMP_temperature;BMP_pressure;BME280_temperature;BME280_humidity;BME280_pressure;Samples;Min_cycle;Max_cycle;Signal;HPM_P1;HPM_P2
2022/09/18 00:01:48;;;;;;;3.42;0.82;;;9.10;99.90;;;;;;5076139;28;20082;-73
2022/09/18 00:04:14;;;;;;;3.10;0.80;;;9.30;99.90;;;;;;5076078;28;20076;-73
2022/09/18 00:06:42;;;;;;;2.58;0.90;;;9.10;99.90;;;;;;5075576;28;20053;-73
2022/09/18 00:09:11;;;;;;;4.20;1.13;;;9.20;99.90;;;;;;5074780;28;20067;-74
2022/09/18 00:11:39;;;;;;;5.60;1.00;;;9.20;99.90;;;;;;5073651;28;20397;-74
2022/09/18 00:14:07;;;;;;;4.28;1.30;;;9.20;99.90;;;;;;5075536;28;20045;-73
2022/09/18 00:16:33;;;;;;;3.38;0.70;;;9.20;99.90;;;;;;5073389;28;20066;-73
2022/09/18 00:19:00;;;;;;;2.72;0.60;;;10.00;99.90;;;;;;5073342;28;20127;-73
2022/09/18 00:21:27;;;;;;;3.95;1.10;;;9.30;99.90;;;;;;5073479;28;20103;-74
2022/09/18 00:23:55;;;;;;;2.83;0.88;;;9.30;99.90;;;;;;5074415;28;20049;-73
2022/09/18 00:26:21;;;;;;;3.10;0.80;;;9.30;99.90;;;;;;5074528;28;20084;-74
2022/09/18 00:28:47;;;;;;;3.70;0.90;;;9.30;99.90;;;;;;5073456;28;20440;-72
2022/09/18 00:31:16;;;;;;;2.55;0.65;;;9.30;99.90;;;;;;5074426;28;20105;-73
2022/09/18 00:33:43;;;;;;;3.38;1.23;;;9.30;99.90;;;;;;5073273;28;20040;-73
2022/09/18 00:36:14;;;;;;;2.67;0.77;;;9.40;99.90;;;;;;5074419;28;20127;-72
2022/09/18 00:38:40;;;;;;;3.95;0.90;;;9.20;99.90;;;;;;5073079;28;20057;-73
2022/09/18 00:41:10;;;;;;;5.85;1.08;;;9.30;99.90;;;;;;5073371;28;20080;-73
2022/09/18 00:43:36;;;;;;;6.57;0.93;;;9.20;99.90;;;;;;5074436;28;20388;-73
2022/09/18 00:46:25;;;;;;;2.40;0.60;;;9.20;99.90;;;;;;5074269;28;20048;-74
2022/09/18 00:49:12;;;;;;;6.00;1.48;;;9.20;99.90;;;;;;5073505;28;20070;-73
2022/09/18 00:51:39;;;;;;;3.67;0.82;;;9.10;99.90;;;;;;5074917;28;20048;-73
2022/09/18 00:54:38;;;;;;;5.20;0.70;;;9.20;99.90;;;;;;5073839;28;20052;-73
2022/09/18 00:57:26;;;;;;;4.57;0.80;;;9.20;99.90;;;;;;5076839;28;20056;-74
2022/09/18 00:59:53;;;;;;;3.13;0.80;;;9.20;99.90;;;;;;5075516;28;20080;-74
2022/09/18 01:02:19;;;;;;;4.20;0.98;;;9.20;99.90;;;;;;5074466;28;20131;-73
2022/09/18 01:04:46;;;;;;;5.07;1.20;;;9.30;99.90;;;;;;5034738;28;1114922;-73
2022/09/18 01:08:06;;;;;;;5.20;1.05;;;9.30;99.90;;;;;;5074987;28;20059;-72
2022/09/18 01:10:47;;;;;;;4.30;0.88;;;9.40;99.90;;;;;;5032651;28;20042;-73
2022/09/18 01:13:33;;;;;;;4.40;0.73;;;9.40;99.90;;;;;;5070776;28;20071;-73
2022/09/18 01:16:03;;;;;;;4.57;1.00;;;9.40;99.90;;;;;;5073211;28;20060;-74
2022/09/18 01:18:41;;;;;;;3.17;0.75;;;9.50;99.90;;;;;;5074746;28;20752;-74
2022/09/18 01:21:09;;;;;;;4.55;0.90;;;9.50;99.90;;;;;;5075215;28;20048;-73
2022/09/18 01:23:45;;;;;;;4.45;0.80;;;9.50;99.90;;;;;;5074485;28;20047;-74
2022/09/18 01:26:23;;;;;;;3.03;0.95;;;9.90;99.90;;;;;;5074593;28;20068;-73
2022/09/18 01:28:57;;;;;;;4.90;0.80;;;9.60;99.90;;;;;;5074368;28;20056;-74
2022/09/18 01:31:32;;;;;;;3.30;0.90;;;9.50;99.90;;;;;;5073502;28;20513;-74
2022/09/18 01:34:16;;;;;;;2.65;1.58;;;9.50;99.90;;;;;;5074370;28;20493;-74
2022/09/18 01:36:47;;;;;;;4.00;0.90;;;9.50;99.90;;;;;;5075131;28;20050;-73
2022/09/18 01:39:26;;;;;;;2.63;0.85;;;9.60;99.90;;;;;;5075077;28;20036;-74
2022/09/18 01:41:54;;;;;;;5.07;0.98;;;9.60;99.90;;;;;;5074081;28;20044;-74
2022/09/18 01:44:28;;;;;;;3.60;0.90;;;9.60;99.90;;;;;;5074211;28;20059;-74
2022/09/18 01:46:58;;;;;;;4.65;0.82;;;9.70;99.90;;;;;;5073158;28;20127;-74
2022/09/18 01:49:28;;;;;;;5.25;1.00;;;9.70;99.90;;;;;;5074021;28;20044;-73
2022/09/18 01:52:13;;;;;;;3.90;1.20;;;9.70;99.90;;;;;;5074056;28;20090;-73
2022/09/18 01:54:43;;;;;;;4.70;1.17;;;9.70;99.90;;;;;;5073962;28;20599;-74
2022/09/18 01:57:15;;;;;;;5.22;0.95;;;9.70;99.90;;;;;;5073708;28;20052;-74
2022/09/18 01:59:50;;;;;;;5.80;0.95;;;9.60;99.90;;;;;;5073893;28;20099;-73
2022/09/18 02:02:27;;;;;;;3.28;0.90;;;9.70;99.90;;;;;;5073890;28;20040;-73
2022/09/18 02:05:00;;;;;;;4.40;0.93;;;9.70;99.90;;;;;;5073522;28;20048;-73
2022/09/18 02:07:33;;;;;;;4.68;1.00;;;9.70;99.90;;;;;;5073785;28;20070;-73
2022/09/18 02:09:59;;;;;;;3.60;0.90;;;9.60;99.90;;;;;;5074172;28;20051;-73
2022/09/18 02:12:27;;;;;;;4.78;0.88;;;9.60;99.90;;;;;;5072598;28;20041;-73
2022/09/18 02:14:58;;;;;;;3.45;0.80;;;9.60;99.90;;;;;;5074341;28;20052;-73
2022/09/18 02:17:46;;;;;;;4.28;1.15;;;9.50;99.90;;;;;;5074060;28;20385;-73
2022/09/18 02:20:19;;;;;;;3.35;1.10;;;9.50;99.90;;;;;;5073043;28;20059;-73
2022/09/18 02:22:48;;;;;;;4.07;0.80;;;9.50;99.90;;;;;;5072857;28;20048;-73
2022/09/18 02:25:17;;;;;;;7.63;2.55;;;9.50;99.90;;;;;;5073483;28;20044;-73
2022/09/18 02:27:43;;;;;;;6.05;0.88;;;9.50;99.90;;;;;;5073127;28;20560;-73
2022/09/18 02:30:10;;;;;;;4.38;0.80;;;9.50;99.90;;;;;;5073841;28;20123;-73
2022/09/18 02:32:37;;;;;;;4.40;1.00;;;9.50;99.90;;;;;;5072449;28;20037;-73
2022/09/18 02:35:05;;;;;;;5.97;1.35;;;9.50;99.90;;;;;;5073917;28;20440;-72
2022/09/18 02:37:43;;;;;;;4.10;1.17;;;9.50;99.90;;;;;;5073293;28;20044;-73
2022/09/18 02:40:45;;;;;;;3.13;0.80;;;9.50;99.90;;;;;;5073935;28;20044;-73
2022/09/18 02:43:39;;;;;;;3.60;1.15;;;9.50;99.90;;;;;;5073310;28;20043;-73
2022/09/18 02:46:28;;;;;;;2.17;0.77;;;9.50;99.90;;;;;;5074111;28;20044;-73
2022/09/18 02:49:21;;;;;;;5.22;1.65;;;9.50;99.90;;;;;;5073190;28;20047;-73
2022/09/18 02:52:06;;;;;;;4.25;0.93;;;9.50;99.90;;;;;;5072142;28;20108;-73
2022/09/18 02:54:57;;;;;;;5.68;0.93;;;9.50;99.90;;;;;;5073193;28;20040;-73
2022/09/18 02:57:39;;;;;;;4.20;1.40;;;9.60;99.90;;;;;;5073133;28;20045;-73
2022/09/18 03:00:06;;;;;;;5.70;0.98;;;9.60;99.90;;;;;;5072988;28;20057;-74
2022/09/18 03:02:32;;;;;;;4.05;0.77;;;9.60;99.90;;;;;;5072097;28;20055;-73
2022/09/18 03:04:58;;;;;;;3.38;0.93;;;9.70;99.90;;;;;;5073062;28;20056;-73
2022/09/18 03:07:24;;;;;;;5.10;1.08;;;9.70;99.90;;;;;;5073630;28;20397;-72
2022/09/18 03:09:49;;;;;;;7.18;1.38;;;9.70;99.90;;;;;;5071959;28;20382;-73
2022/09/18 03:12:15;;;;;;;5.22;0.80;;;9.70;99.90;;;;;;5072927;28;20128;-73
2022/09/18 03:14:41;;;;;;;3.55;0.98;;;9.70;99.90;;;;;;5072701;28;20052;-73
2022/09/18 03:17:08;;;;;;;5.75;0.90;;;9.70;99.90;;;;;;5072933;28;20041;-73
2022/09/18 03:19:33;;;;;;;4.20;0.80;;;9.70;99.90;;;;;;5072985;28;20119;-73
2022/09/18 03:21:59;;;;;;;2.63;1.00;;;9.70;99.90;;;;;;5072876;28;20084;-73
2022/09/18 03:24:26;;;;;;;4.95;1.00;;;9.70;99.90;;;;;;5072869;28;20370;-73
2022/09/18 03:26:52;;;;;;;3.05;0.70;;;9.80;99.90;;;;;;5073410;28;20122;-73
2022/09/18 03:29:18;;;;;;;5.32;1.20;;;9.80;99.90;;;;;;5072801;28;20076;-74
2022/09/18 03:31:43;;;;;;;2.95;0.88;;;9.80;99.90;;;;;;5072843;28;20135;-73
2022/09/18 03:34:09;;;;;;;5.05;1.08;;;9.80;99.90;;;;;;5072840;28;20049;-72
2022/09/18 03:36:35;;;;;;;4.22;0.70;;;9.80;99.90;;;;;;5072436;28;20040;-73
2022/09/18 03:39:00;;;;;;;3.70;1.40;;;9.90;99.90;;;;;;5072802;28;20099;-73
2022/09/18 03:41:26;;;;;;;2.33;0.75;;;9.90;99.90;;;;;;5072981;28;20481;-73
2022/09/18 03:43:52;;;;;;;4.85;1.05;;;9.90;99.90;;;;;;5072649;28;20492;-74
2022/09/18 03:46:22;;;;;;;4.88;1.10;;;10.00;99.90;;;;;;5072682;28;20048;-73
2022/09/18 03:48:49;;;;;;;4.05;1.27;;;10.00;99.90;;;;;;5054765;28;20057;-74
2022/09/18 03:51:16;;;;;;;3.60;0.70;;;10.10;99.90;;;;;;5072565;28;20099;-74
2022/09/18 03:53:44;;;;;;;2.75;0.90;;;10.50;99.90;;;;;;5074472;28;20102;-74
2022/09/18 03:56:10;;;;;;;3.83;0.70;;;10.10;99.90;;;;;;5076454;28;20470;-73
2022/09/18 03:58:35;;;;;;;3.67;0.70;;;10.10;99.90;;;;;;5076139;28;20040;-73
2022/09/18 04:01:01;;;;;;;4.25;0.93;;;10.10;99.90;;;;;;5076225;28;20497;-73
2022/09/18 04:03:27;;;;;;;2.47;0.90;;;10.10;99.90;;;;;;5076141;28;20044;-73
2022/09/18 04:05:52;;;;;;;3.33;0.73;;;10.10;99.90;;;;;;5076007;28;20110;-73
2022/09/18 04:08:18;;;;;;;2.83;0.63;;;10.00;99.90;;;;;;5076794;28;20052;-73
2022/09/18 04:10:46;;;;;;;5.55;1.13;;;10.10;99.90;;;;;;5075955;28;20119;-72
2022/09/18 04:13:11;;;;;;;2.85;0.80;;;10.10;99.90;;;;;;5075218;28;20036;-74
2022/09/18 04:15:37;;;;;;;6.82;1.10;;;10.10;99.90;;;;;;5076202;28;20070;-73
2022/09/18 04:18:03;;;;;;;3.85;0.82;;;10.10;99.90;;;;;;5076480;28;20123;-74
2022/09/18 04:20:29;;;;;;;2.67;0.73;;;10.00;99.90;;;;;;5076580;28;20098;-73
2022/09/18 04:22:55;;;;;;;4.38;0.80;;;10.10;99.90;;;;;;5058282;28;20052;-73
2022/09/18 04:25:21;;;;;;;3.30;0.90;;;10.10;99.90;;;;;;5057923;28;20106;-73
2022/09/18 04:27:47;;;;;;;3.63;0.82;;;10.00;99.90;;;;;;5077426;28;20052;-73
2022/09/18 04:30:13;;;;;;;4.75;1.00;;;10.00;99.90;;;;;;5078582;28;20177;-73
2022/09/18 04:32:40;;;;;;;3.15;1.05;;;10.00;99.90;;;;;;5076895;28;20397;-73
2022/09/18 04:35:06;;;;;;;4.78;0.70;;;10.00;99.90;;;;;;5075593;28;20044;-73
2022/09/18 04:37:32;;;;;;;2.30;0.63;;;10.00;99.90;;;;;;5075557;28;20055;-72
2022/09/18 04:39:57;;;;;;;3.47;0.70;;;10.00;99.90;;;;;;5075462;28;20036;-73
2022/09/18 04:42:23;;;;;;;3.85;0.70;;;10.00;99.90;;;;;;5074417;28;20044;-73
2022/09/18 04:44:49;;;;;;;4.38;1.08;;;10.00;99.90;;;;;;5075378;28;20055;-73
2022/09/18 04:47:15;;;;;;;4.53;1.00;;;10.00;99.90;;;;;;5074719;28;20044;-72
2022/09/18 04:49:40;;;;;;;3.83;0.80;;;9.90;99.90;;;;;;5075245;28;20032;-73
2022/09/18 04:52:06;;;;;;;4.35;0.80;;;9.90;99.90;;;;;;5075136;28;20044;-73
2022/09/18 04:54:31;;;;;;;3.72;0.90;;;9.90;99.90;;;;;;5075241;28;20047;-73
2022/09/18 04:56:57;;;;;;;3.85;0.75;;;10.00;99.90;;;;;;5075789;28;20451;-73
2022/09/18 04:59:23;;;;;;;2.83;0.80;;;10.00;99.90;;;;;;5074137;28;20062;-72
2022/09/18 05:01:48;;;;;;;3.00;0.70;;;10.00;99.90;;;;;;5075384;28;20044;-73
2022/09/18 05:04:15;;;;;;;4.43;0.77;;;10.00;99.90;;;;;;5074160;28;20044;-74
2022/09/18 05:06:41;;;;;;;3.05;0.98;;;10.00;99.90;;;;;;5073045;28;20083;-74
2022/09/18 05:09:06;;;;;;;2.78;0.90;;;10.00;99.90;;;;;;5074484;28;20087;-72
2022/09/18 05:11:32;;;;;;;1.42;0.60;;;10.00;99.90;;;;;;5074787;28;20135;-73
2022/09/18 05:13:58;;;;;;;2.83;0.80;;;10.00;99.90;;;;;;5075217;28;20048;-73
2022/09/18 05:16:24;;;;;;;2.90;0.80;;;10.00;99.90;;;;;;5075115;28;20127;-73
2022/09/18 05:18:51;;;;;;;1.77;0.60;;;10.00;99.90;;;;;;5074491;28;20045;-72
2022/09/18 05:21:17;;;;;;;4.45;0.93;;;10.00;99.90;;;;;;5074599;28;20063;-72
2022/09/18 05:23:44;;;;;;;3.08;0.70;;;10.00;99.90;;;;;;5074984;28;20063;-74
2022/09/18 05:26:10;;;;;;;2.97;0.80;;;10.00;99.90;;;;;;5073769;28;20462;-72
2022/09/18 05:28:36;;;;;;;4.18;0.75;;;10.00;99.90;;;;;;5074402;28;20054;-73
2022/09/18 05:31:02;;;;;;;3.88;0.70;;;10.10;99.90;;;;;;5074196;28;20048;-73
2022/09/18 05:33:29;;;;;;;3.13;0.65;;;10.10;99.90;;;;;;5074435;28;20104;-73
2022/09/18 05:35:56;;;;;;;2.60;0.90;;;10.00;99.90;;;;;;5073872;28;20052;-74
2022/09/18 05:38:25;;;;;;;4.43;0.90;;;10.10;99.90;;;;;;5074324;28;20048;-74
2022/09/18 05:40:51;;;;;;;2.47;0.93;;;10.10;99.90;;;;;;5074168;28;20083;-75
2022/09/18 05:43:17;;;;;;;2.15;0.60;;;10.10;99.90;;;;;;5074146;28;20053;-73
2022/09/18 05:45:43;;;;;;;4.00;1.27;;;10.10;99.90;;;;;;5074393;28;20055;-73
2022/09/18 05:48:13;;;;;;;3.65;0.95;;;10.10;99.90;;;;;;5074069;28;20131;-73
2022/09/18 05:50:41;;;;;;;4.60;0.90;;;10.10;99.90;;;;;;5072676;28;20509;-73
2022/09/18 05:53:11;;;;;;;1.48;0.55;;;10.20;99.90;;;;;;5072988;28;20131;-73
2022/09/18 05:55:37;;;;;;;1.83;0.65;;;10.20;99.90;;;;;;5073940;28;20044;-74
2022/09/18 05:58:04;;;;;;;2.47;0.80;;;10.20;99.90;;;;;;5056322;28;20048;-74
2022/09/18 06:00:33;;;;;;;2.03;0.60;;;10.20;99.90;;;;;;5056447;28;20048;-73
2022/09/18 06:03:04;;;;;;;2.00;0.80;;;10.20;99.90;;;;;;5073845;28;20048;-73
2022/09/18 06:05:31;;;;;;;4.43;0.80;;;10.20;99.90;;;;;;5073923;28;20060;-72
2022/09/18 06:07:58;;;;;;;2.78;0.70;;;10.20;99.90;;;;;;5073674;28;20087;-74
2022/09/18 06:10:24;;;;;;;2.35;0.70;;;10.30;99.90;;;;;;5073604;28;20141;-73
2022/09/18 06:12:49;;;;;;;4.03;0.70;;;10.30;99.90;;;;;;5073939;28;20107;-73
2022/09/18 06:15:16;;;;;;;2.13;0.50;;;10.30;99.90;;;;;;5074293;28;20045;-73
2022/09/18 06:17:42;;;;;;;2.45;0.63;;;10.20;99.90;;;;;;5074210;28;20170;-73
2022/09/18 06:20:08;;;;;;;2.28;0.60;;;10.20;99.90;;;;;;5072409;28;20040;-74
2022/09/18 06:22:37;;;;;;;4.80;0.90;;;10.20;99.90;;;;;;5074242;28;20051;-73
2022/09/18 06:25:04;;;;;;;3.33;0.85;;;10.20;99.90;;;;;;5056138;28;20058;-74
2022/09/18 06:27:29;;;;;;;3.33;0.52;;;10.20;99.90;;;;;;5072419;28;20094;-73
2022/09/18 06:29:55;;;;;;;2.92;0.70;;;10.20;99.90;;;;;;5073391;28;20041;-73
2022/09/18 06:32:21;;;;;;;3.75;0.60;;;10.20;99.90;;;;;;5073381;28;20044;-73
2022/09/18 06:34:47;;;;;;;2.63;0.73;;;10.20;99.90;;;;;;5073907;28;20423;-74
2022/09/18 06:37:14;;;;;;;3.25;0.70;;;10.20;99.90;;;;;;5073410;28;20374;-73
2022/09/18 06:39:42;;;;;;;3.80;0.80;;;10.20;99.90;;;;;;5073340;28;20083;-73
2022/09/18 06:42:08;;;;;;;1.58;0.80;;;10.20;99.90;;;;;;5073215;28;20044;-73
2022/09/18 06:44:34;;;;;;;4.03;0.73;;;10.20;99.90;;;;;;5073320;28;20041;-73
2022/09/18 06:46:59;;;;;;;2.17;0.60;;;10.20;99.90;;;;;;5073294;28;20045;-74
2022/09/18 06:49:25;;;;;;;3.80;0.65;;;10.20;99.90;;;;;;5073148;28;20036;-73
2022/09/18 06:51:51;;;;;;;2.60;0.70;;;10.20;99.90;;;;;;5073530;28;20189;-74
2022/09/18 06:54:17;;;;;;;2.83;0.80;;;10.20;99.90;;;;;;5072023;28;20086;-73
2022/09/18 06:56:44;;;;;;;4.10;0.60;;;10.20;99.90;;;;;;5073696;28;20055;-67
2022/09/18 06:59:09;;;;;;;3.20;0.70;;;10.20;99.90;;;;;;5073931;28;20052;-66
2022/09/18 07:01:35;;;;;;;2.38;0.60;;;10.20;99.90;;;;;;5073146;28;20477;-66
2022/09/18 07:04:01;;;;;;;1.55;0.70;;;10.30;99.90;;;;;;5073128;28;20046;-66
2022/09/18 07:06:27;;;;;;;3.58;0.70;;;10.30;99.90;;;;;;5071878;28;20052;-66
2022/09/18 07:08:54;;;;;;;1.52;0.60;;;10.30;99.90;;;;;;5072972;28;20084;-66
2022/09/18 07:11:19;;;;;;;1.40;0.63;;;10.30;99.90;;;;;;5073107;28;20053;-66
2022/09/18 07:13:46;;;;;;;3.65;0.88;;;10.30;99.90;;;;;;5073408;28;20052;-67
2022/09/18 07:16:12;;;;;;;2.50;0.63;;;10.40;99.90;;;;;;5073152;28;20473;-66
2022/09/18 07:18:38;;;;;;;2.55;0.73;;;10.40;99.90;;;;;;5071897;28;20049;-67
2022/09/18 07:21:04;;;;;;;3.15;0.73;;;10.40;99.90;;;;;;5072864;28;20098;-66
2022/09/18 07:23:31;;;;;;;2.42;0.60;;;10.40;99.90;;;;;;5073625;28;20374;-66
2022/09/18 07:26:01;;;;;;;3.58;0.82;;;10.40;99.90;;;;;;5073618;28;20121;-66
2022/09/18 07:28:27;;;;;;;1.92;0.73;;;10.40;99.90;;;;;;5074449;28;20389;-67
2022/09/18 07:30:52;;;;;;;4.45;1.10;;;10.50;99.90;;;;;;5076709;28;20043;-66
2022/09/18 07:33:18;;;;;;;2.33;0.70;;;10.50;99.90;;;;;;5076712;28;20047;-66
2022/09/18 07:35:44;;;;;;;2.88;1.00;;;10.40;99.90;;;;;;5076600;28;20056;-67
2022/09/18 07:38:10;;;;;;;2.15;0.60;;;10.40;99.90;;;;;;5076533;28;20166;-67
2022/09/18 07:40:36;;;;;;;2.55;0.68;;;10.50;99.90;;;;;;5076074;28;20486;-66
2022/09/18 07:43:05;;;;;;;1.33;0.70;;;10.50;99.90;;;;;;5076589;28;20080;-67
2022/09/18 07:45:31;;;;;;;2.92;0.75;;;10.50;99.90;;;;;;5076257;28;20123;-67
2022/09/18 07:48:01;;;;;;;1.83;0.57;;;10.50;99.90;;;;;;5076537;28;20136;-67
2022/09/18 07:50:26;;;;;;;1.88;0.55;;;10.50;99.90;;;;;;5075994;28;20139;-67
2022/09/18 07:52:55;;;;;;;1.90;0.60;;;10.60;99.90;;;;;;5076288;28;20084;-67
2022/09/18 07:55:22;;;;;;;2.90;0.60;;;10.50;99.90;;;;;;5076246;28;20457;-68
2022/09/18 07:57:53;;;;;;;1.52;0.60;;;10.60;99.90;;;;;;5076140;28;20052;-66
2022/09/18 08:00:19;;;;;;;2.33;0.60;;;10.60;99.90;;;;;;5075167;28;20045;-67
2022/09/18 08:02:45;;;;;;;2.80;0.60;;;10.60;99.90;;;;;;5077077;28;20442;-66
2022/09/18 08:05:11;;;;;;;3.22;0.70;;;10.60;99.90;;;;;;5076653;28;20080;-66
2022/09/18 08:07:36;;;;;;;1.60;0.63;;;10.60;99.90;;;;;;5075622;28;20397;-67
2022/09/18 08:10:04;;;;;;;2.22;0.68;;;10.70;99.90;;;;;;5075428;28;20044;-67
2022/09/18 08:12:30;;;;;;;3.03;0.60;;;10.60;99.90;;;;;;5076686;28;20102;-67
2022/09/18 08:14:57;;;;;;;4.95;1.00;;;10.60;99.90;;;;;;5075897;28;20048;-68
2022/09/18 08:17:23;;;;;;;3.28;0.70;;;10.60;99.90;;;;;;5076095;28;20408;-67
2022/09/18 08:19:49;;;;;;;3.60;0.80;;;10.60;99.90;;;;;;5075827;28;20500;-67
2022/09/18 08:22:14;;;;;;;3.22;0.60;;;10.50;99.90;;;;;;5075890;28;20056;-67
2022/09/18 08:24:40;;;;;;;2.75;0.80;;;10.50;99.90;;;;;;5074775;28;20047;-67
2022/09/18 08:27:06;;;;;;;3.13;0.70;;;10.50;99.90;;;;;;5076538;28;20047;-66
2022/09/18 08:29:32;;;;;;;2.28;0.70;;;10.50;99.90;;;;;;5075236;28;20393;-66
2022/09/18 08:31:58;;;;;;;3.55;0.82;;;10.50;99.90;;;;;;5075668;28;20037;-67
2022/09/18 08:34:24;;;;;;;3.03;0.70;;;10.50;99.90;;;;;;5075595;28;20044;-66
2022/09/18 08:36:49;;;;;;;1.50;0.50;;;10.50;99.90;;;;;;5075444;28;20401;-67
2022/09/18 08:39:15;;;;;;;2.53;0.80;;;10.40;99.90;;;;;;5074985;28;20401;-66
2022/09/18 08:42:06;;;;;;;2.35;0.60;;;10.40;99.90;;;;;;5075443;28;20040;-67
2022/09/18 08:44:52;;;;;;;2.78;0.70;;;10.40;99.90;;;;;;5075757;28;20052;-66
2022/09/18 08:47:21;;;;;;;1.85;0.60;;;10.40;99.90;;;;;;5075887;28;20128;-66
2022/09/18 08:50:20;;;;;;;2.00;0.75;;;10.40;99.90;;;;;;5075250;28;20051;-66
2022/09/18 08:52:49;;;;;;;4.00;1.02;;;10.40;99.90;;;;;;5069909;28;20061;-66
2022/09/18 08:55:30;;;;;;;2.15;0.55;;;10.50;99.90;;;;;;5075181;28;20051;-66
2022/09/18 08:58:01;;;;;;;1.60;0.50;;;10.50;99.90;;;;;;5075210;28;20074;-66
2022/09/18 09:00:40;;;;;;;1.55;0.50;;;10.50;99.90;;;;;;5074716;28;20040;-66
2022/09/18 09:03:14;;;;;;;2.25;0.60;;;10.60;99.90;;;;;;5074632;28;20615;-66
2022/09/18 09:06:05;;;;;;;2.17;0.60;;;10.60;99.90;;;;;;5075493;28;20052;-67
2022/09/18 09:08:54;;;;;;;1.90;0.50;;;10.60;99.90;;;;;;5074968;28;20145;-66
2022/09/18 09:11:56;;;;;;;4.30;0.80;;;10.60;99.90;;;;;;5075075;28;20083;-66
2022/09/18 09:14:40;;;;;;;2.25;0.50;;;10.60;99.90;;;;;;5072947;28;20092;-66
2022/09/18 09:17:15;;;;;;;2.88;0.60;;;10.60;99.90;;;;;;5074777;28;20443;-66
2022/09/18 09:20:01;;;;;;;2.67;0.80;;;10.60;99.90;;;;;;5075273;28;20048;-66
2022/09/18 09:22:30;;;;;;;2.33;0.50;;;10.60;99.90;;;;;;5075256;28;20414;-66
2022/09/18 09:25:14;;;;;;;2.33;0.70;;;10.70;99.90;;;;;;5075364;28;20048;-66
2022/09/18 09:27:48;;;;;;;2.05;0.65;;;10.70;99.90;;;;;;5074593;28;20131;-66
2022/09/18 09:30:23;;;;;;;2.67;0.80;;;10.70;99.90;;;;;;5075024;28;20049;-66
2022/09/18 09:33:14;;;;;;;2.40;0.80;;;10.60;99.90;;;;;;5074493;28;20102;-67
2022/09/18 09:35:50;;;;;;;1.83;0.70;;;10.70;99.90;;;;;;5073447;28;20075;-67
2022/09/18 09:38:30;;;;;;;1.73;0.50;;;10.70;99.90;;;;;;5073147;28;20041;-66
2022/09/18 09:41:00;;;;;;;3.33;0.80;;;10.70;99.90;;;;;;5074281;28;20106;-67
2022/09/18 09:43:40;;;;;;;3.20;0.70;;;10.70;99.90;;;;;;5074096;28;20095;-66
2022/09/18 09:46:21;;;;;;;2.55;0.65;;;10.70;99.90;;;;;;5074232;28;20037;-66
2022/09/18 09:49:01;;;;;;;3.92;0.73;;;10.70;99.90;;;;;;5074224;28;20049;-66
2022/09/18 09:51:35;;;;;;;3.15;0.60;;;10.70;99.90;;;;;;5073477;28;20042;-66
2022/09/18 09:54:01;;;;;;;3.80;0.80;;;10.70;99.90;;;;;;5074860;28;20048;-65
2022/09/18 09:57:17;;;;;;;2.60;0.70;;;10.60;99.90;;;;;;5073325;28;20514;-66
2022/09/18 10:00:13;;;;;;;3.00;0.70;;;10.60;99.90;;;;;;5029016;28;20052;-66
2022/09/18 10:03:03;;;;;;;3.35;1.45;;;10.60;99.90;;;;;;5073364;28;20044;-66
2022/09/18 10:05:39;;;;;;;2.00;0.70;;;10.60;99.90;;;;;;5074558;28;20052;-66
2022/09/18 10:08:26;;;;;;;2.95;0.77;;;10.60;99.90;;;;;;5073889;28;20052;-66
2022/09/18 10:10:57;;;;;;;2.28;0.60;;;10.70;99.90;;;;;;5073770;28;20040;-66
2022/09/18 10:14:05;;;;;;;2.90;0.88;;;10.60;99.90;;;;;;5073772;28;20060;-66
2022/09/18 10:16:38;;;;;;;1.40;0.65;;;10.70;99.90;;;;;;5057661;28;20117;-65
2022/09/18 10:19:04;;;;;;;4.07;0.77;;;10.60;99.90;;;;;;5073629;28;20392;-65
2022/09/18 10:21:35;;;;;;;3.75;0.90;;;10.70;99.90;;;;;;5073626;28;20044;-65
2022/09/18 10:24:19;;;;;;;1.35;0.77;;;10.60;99.90;;;;;;5073611;28;20135;-65
2022/09/18 10:26:52;;;;;;;1.60;0.80;;;10.70;99.90;;;;;;5074327;28;20059;-66
2022/09/18 10:29:18;;;;;;;2.08;0.73;;;10.70;99.90;;;;;;5072171;28;20055;-65
2022/09/18 10:31:51;;;;;;;4.55;0.73;;;10.70;99.90;;;;;;5073435;28;20040;-66
2022/09/18 10:34:47;;;;;;;4.78;0.93;;;10.80;99.90;;;;;;5073984;28;20040;-66
2022/09/18 10:37:28;;;;;;;1.95;0.65;;;10.80;99.90;;;;;;5073419;28;20090;-65
2022/09/18 10:39:59;;;;;;;2.33;0.68;;;10.80;99.90;;;;;;5073358;28;20036;-65
2022/09/18 10:42:27;;;;;;;2.00;0.73;;;10.90;99.90;;;;;;5072584;28;20481;-65
2022/09/18 10:45:01;;;;;;;4.07;0.70;;;11.00;99.90;;;;;;5073394;28;20060;-66
2022/09/18 10:47:32;;;;;;;2.33;0.65;;;10.90;99.90;;;;;;5073884;28;20056;-66
2022/09/18 10:50:10;;;;;;;2.53;0.70;;;10.90;99.90;;;;;;5073200;28;20052;-65
2022/09/18 10:52:40;;;;;;;4.45;0.50;;;11.00;99.90;;;;;;5073691;28;20131;-65
2022/09/18 10:55:08;;;;;;;2.35;1.02;;;11.00;99.90;;;;;;5072438;28;20091;-65
2022/09/18 10:57:55;;;;;;;1.15;0.50;;;11.00;99.90;;;;;;5073197;28;20044;-65
2022/09/18 11:00:20;;;;;;;3.17;0.70;;;11.00;99.90;;;;;;5073781;28;20049;-66
2022/09/18 11:03:05;;;;;;;2.40;0.60;;;11.00;99.90;;;;;;5075455;28;20482;-66
2022/09/18 11:05:34;;;;;;;2.42;0.60;;;11.00;99.90;;;;;;5077467;28;20108;-66
2022/09/18 11:08:05;;;;;;;4.65;0.68;;;11.10;99.90;;;;;;5078100;28;20428;-66
2022/09/18 11:10:32;;;;;;;3.10;0.80;;;11.20;99.90;;;;;;5077225;28;20127;-66
2022/09/18 11:13:00;;;;;;;2.92;0.68;;;11.20;99.90;;;;;;5076361;28;20377;-66
2022/09/18 11:15:31;;;;;;;4.13;0.60;;;11.20;99.90;;;;;;5076108;28;20048;-66
2022/09/18 11:18:04;;;;;;;2.78;0.60;;;11.20;99.90;;;;;;5077105;28;20056;-66
2022/09/18 11:20:39;;;;;;;4.78;0.93;;;11.20;99.90;;;;;;5077764;28;20433;-66
2022/09/18 11:23:28;;;;;;;2.85;0.70;;;11.20;99.90;;;;;;5059736;28;20092;-66
2022/09/18 11:26:08;;;;;;;4.00;0.88;;;11.20;99.90;;;;;;5077216;28;20147;-66
2022/09/18 11:28:34;;;;;;;3.33;0.75;;;11.30;99.90;;;;;;5075656;28;20051;-66
2022/09/18 11:31:01;;;;;;;4.40;0.77;;;11.30;99.90;;;;;;5076814;28;20037;-66
2022/09/18 11:33:32;;;;;;;3.58;0.70;;;11.30;99.90;;;;;;5076744;28;20060;-66
2022/09/18 11:36:25;;;;;;;3.97;0.95;;;11.30;99.90;;;;;;5077226;28;20054;-66
2022/09/18 11:38:51;;;;;;;2.42;0.80;;;11.40;99.90;;;;;;5077477;28;20044;-66
2022/09/18 11:41:38;;;;;;;2.50;1.20;;;11.40;99.90;;;;;;5076477;28;20041;-66
2022/09/18 11:44:15;;;;;;;2.22;0.70;;;11.50;99.90;;;;;;5076054;28;20052;-66
2022/09/18 11:47:14;;;;;;;2.95;0.70;;;11.60;99.90;;;;;;5077245;28;20048;-65
2022/09/18 11:49:44;;;;;;;4.13;0.88;;;11.60;99.90;;;;;;5076873;28;20047;-72
2022/09/18 11:52:19;;;;;;;2.03;0.70;;;11.70;99.90;;;;;;5076815;28;20040;-71
2022/09/18 11:55:14;;;;;;;3.00;0.80;;;11.80;99.90;;;;;;5076281;28;20048;-71
2022/09/18 11:57:46;;;;;;;2.22;0.98;;;11.80;99.90;;;;;;5074634;28;20060;-71
2022/09/18 12:00:17;;;;;;;5.72;0.90;;;11.80;99.90;;;;;;5076868;28;20419;-71
2022/09/18 12:02:46;;;;;;;2.70;1.30;;;11.70;99.90;;;;;;5076676;28;20044;-71
2022/09/18 12:05:30;;;;;;;4.68;0.95;;;11.90;99.90;;;;;;5078301;28;20044;-69
2022/09/18 12:08:37;;;;;;;3.35;0.70;;;11.90;99.90;;;;;;5078035;28;20131;-71
2022/09/18 12:11:55;;;;;;;3.05;0.70;;;11.90;99.90;;;;;;5069996;28;20092;-72
2022/09/18 12:14:29;;;;;;;3.50;0.80;;;11.90;99.90;;;;;;5032977;28;20045;-72
2022/09/18 12:17:26;;;;;;;3.92;0.90;;;11.90;99.90;;;;;;5017549;28;20049;-72
2022/09/18 12:20:26;;;;;;;3.17;0.75;;;11.90;99.90;;;;;;5042214;28;20511;-73
2022/09/18 12:22:55;;;;;;;3.38;0.90;;;11.90;99.90;;;;;;5075646;28;20136;-73
2022/09/18 12:25:40;;;;;;;2.13;0.60;;;12.00;99.90;;;;;;5075681;28;20040;-73
2022/09/18 12:28:28;;;;;;;3.65;0.80;;;12.00;99.90;;;;;;5076555;28;20083;-71
2022/09/18 12:31:11;;;;;;;3.00;1.00;;;12.00;99.90;;;;;;5076141;28;20045;-72
2022/09/18 12:33:50;;;;;;;2.70;0.90;;;12.10;99.90;;;;;;5076100;28;20405;-72
2022/09/18 12:36:34;;;;;;;4.63;1.35;;;12.10;99.90;;;;;;5076092;28;20059;-72
2022/09/18 12:39:23;;;;;;;3.83;0.90;;;12.20;99.90;;;;;;5075440;28;20044;-73
2022/09/18 12:42:15;;;;;;;2.30;0.80;;;12.20;99.90;;;;;;5074913;28;20053;-73
2022/09/18 12:45:02;;;;;;;3.25;0.85;;;12.20;99.90;;;;;;5075738;28;20052;-71
2022/09/18 12:47:50;;;;;;;4.50;0.80;;;12.20;99.90;;;;;;5076235;28;20044;-71
2022/09/18 12:50:27;;;;;;;4.20;1.00;;;12.20;99.90;;;;;;5075234;28;20504;-71
2022/09/18 12:53:37;;;;;;;4.90;0.93;;;12.30;99.90;;;;;;5075228;28;20048;-70
2022/09/18 12:56:31;;;;;;;3.63;0.80;;;12.30;99.90;;;;;;5016546;28;20190;-71
2022/09/18 12:59:15;;;;;;;3.00;0.80;;;12.30;99.90;;;;;;5075090;28;20082;-71
2022/09/18 13:01:49;;;;;;;3.00;0.82;;;12.30;99.90;;;;;;5074923;28;20211;-71
2022/09/18 13:04:47;;;;;;;2.97;0.82;;;12.40;99.90;;;;;;5075265;28;20127;-71
2022/09/18 13:07:16;;;;;;;;;;;12.40;99.90;;;;;;5074516;28;20056;-71
2022/09/18 13:10:10;;;;;;;3.63;0.80;;;12.40;99.90;;;;;;5074859;28;19920;-72
2022/09/18 13:12:54;;;;;;;5.78;1.23;;;12.40;99.90;;;;;;5069668;28;20110;-72
2022/09/18 13:15:43;;;;;;;3.13;0.80;;;12.40;99.90;;;;;;5074804;28;20045;-72
2022/09/18 13:18:34;;;;;;;8.00;1.02;;;12.50;99.90;;;;;;5074813;28;20044;-71
2022/09/18 13:21:03;;;;;;;4.47;1.00;;;12.50;99.90;;;;;;5074911;28;20442;-72